CheckWX is a tool to help pilots better visualize weather data.  It is not intended as a substitute for an official pre-flight weather briefing.

07:17:28 UTC

CYYG TAF
Charlottetown Airport
Charlottetown, Canada
TAF CYYG 180541Z 1806/1818 01010G20KT P6SM BKN030 FM181200 01010G20KT P6SM BKN025 TEMPO 1812/1818 BKN020 RMK NXT FCST BY 181200Z

Sep-18@
06:00 UTC

Sep-18 @ 06:00 UTC

Sep-18@
12:00 UTC

Sep-18 @ 12:00 UTC

TAF CYYG 180541Z 1806/1818 01010G20KT P6SM BKN030
Wind
  • 010° at 10 KTS
  • {Gusting to 20 KTS
Cloud Levels
  • Broken at 3,000' AGL

Sep-18@
12:00 UTC

Sep-18 @ 12:00 UTC

Sep-18@
18:00 UTC

Sep-18 @ 18:00 UTC

FM181200 01010G20KT P6SM BKN025

From

From Standard forecast or significant change

Wind
  • 010° at 10 KTS
  • {Gusting to 20 KTS
Cloud Levels
  • Broken at 2,500' AGL

Sep-18@
12:00 UTC

Sep-18 @ 12:00 UTC

Sep-18@
18:00 UTC

Sep-18 @ 18:00 UTC

TEMPO 1812/1818 BKN020 RMK NXT FCST BY 181200Z

Temporary

Temporary Changes expected for less than half the time period

Cloud Levels
  • Broken at 2,000' AGL